Time;durP1;ratioP1;P1;durP2;ratioP2;P2;SDS_P1;SDS_P2;PMS_P1;PMS_P2;Temp;Humidity;BMP_temperature;BMP_pressure;BME280_temperature;BME280_humidity;BME280_pressure;Samples;Min_cycle;Max_cycle;Signal;HPM_P1;HPM_P2
2024/03/22 12:31:04;;;;;;;;;;;;;;;;;;6190450;22;19919;-93
2024/03/22 12:33:29;;;;;;;;;;;;;;;;;;6247609;23;19916;-94
2024/03/22 12:35:55;;;;;;;;;;;;;;;;;;6248012;23;20003;-96
2024/03/22 12:38:20;;;;;;;;;;;;;;;;;;6248135;23;19916;-96
2024/03/22 12:40:45;;;;;;;;;;;;;;;;;;6221274;23;20314;-95
2024/03/22 12:43:11;;;;;;;;;;;;;;;;;;6247534;23;19947;-96
2024/03/22 19:32:44;;;;;;;;;;;;;;;;;;6237005;23;19931;-92
2024/03/22 19:35:10;;;;;;;;;;;;;;;;;;6216435;23;19912;-92
2024/03/22 19:37:35;;;;;;;;;;;;;;;;;;6216459;23;19908;-92
2024/03/22 19:40:02;;;;;;;;;;;;;;;;;;6217605;23;19907;-91
2024/03/22 19:42:27;;;;;;;;;;;;;;;;;;6217731;23;19908;-93
2024/03/22 19:44:53;;;;;;;;;;;;;;;;;;6217673;23;19918;-91
2024/03/22 19:47:18;;;;;;;;;;;;;;;;;;6217619;23;19955;-92
2024/03/22 19:49:43;;;;;;;;;;;;;;;;;;6217572;23;19908;-91
2024/03/22 19:52:09;;;;;;;;;;;;;;;;;;6217750;23;19956;-92
2024/03/22 19:54:34;;;;;;;;;;;;;;;;;;6217739;23;20250;-91
2024/03/22 19:57:00;;;;;;;;;;;;;;;;;;6241710;23;19916;-91
2024/03/22 19:59:26;;;;;;;;;;;;;;;;;;6216070;23;19931;-91
2024/03/22 20:01:53;;;;;;;;;;;;;;;;;;6216181;23;19914;-92
2024/03/22 20:04:18;;;;;;;;;;;;;;;;;;6216247;23;19908;-92
2024/03/22 20:06:44;;;;;;;;;;;;;;;;;;6215743;23;19908;-91
2024/03/22 20:09:11;;;;;;;;;;;;;;;;;;6215995;23;19966;-92
2024/03/22 20:11:36;;;;;;;;;;;;;;;;;;6216640;23;20402;-92
2024/03/22 20:14:03;;;;;;;;;;;;;;;;;;6216396;23;19943;-91
2024/03/22 20:16:28;;;;;;;;;;;;;;;;;;6216421;23;20265;-92
2024/03/22 20:18:54;;;;;;;;;;;;;;;;;;6215443;23;19982;-90
2024/03/22 20:21:19;;;;;;;;;;;;;;;;;;6217565;23;19908;-91
2024/03/22 20:23:44;;;;;;;;;;;;;;;;;;6216269;23;19935;-93
2024/03/22 20:26:10;;;;;;;;;;;;;;;;;;6215935;23;20417;-91
2024/03/22 20:28:36;;;;;;;;;;;;;;;;;;6215579;23;19914;-90
2024/03/22 20:31:01;;;;;;;;;;;;;;;;;;6215418;23;19908;-91
2024/03/22 20:33:26;;;;;;;;;;;;;;;;;;6215558;23;20235;-89
2024/03/22 20:35:52;;;;;;;;;;;;;;;;;;6215068;23;19911;-89
2024/03/22 20:38:18;;;;;;;;;;;;;;;;;;6215539;23;19903;-90
2024/03/22 20:40:43;;;;;;;;;;;;;;;;;;6215228;23;19912;-90
2024/03/22 20:43:09;;;;;;;;;;;;;;;;;;6215338;23;19962;-90
2024/03/22 20:45:35;;;;;;;;;;;;;;;;;;6189520;23;19958;-90
2024/03/22 20:48:03;;;;;;;;;;;;;;;;;;6217032;23;19907;-90
2024/03/22 20:50:28;;;;;;;;;;;;;;;;;;6217033;23;19904;-90
2024/03/22 20:52:54;;;;;;;;;;;;;;;;;;6216569;23;20247;-89
2024/03/22 20:55:21;;;;;;;;;;;;;;;;;;6214914;23;19911;-89
2024/03/22 20:57:47;;;;;;;;;;;;;;;;;;6214762;23;19926;-88
2024/03/22 21:00:13;;;;;;;;;;;;;;;;;;6214835;23;19990;-88
2024/03/22 21:02:40;;;;;;;;;;;;;;;;;;6216283;23;19962;-89
2024/03/22 21:05:06;;;;;;;;;;;;;;;;;;6215136;23;19991;-89
2024/03/22 21:07:32;;;;;;;;;;;;;;;;;;6216952;23;19908;-90
2024/03/22 21:09:57;;;;;;;;;;;;;;;;;;6215711;23;19954;-91
2024/03/22 21:12:23;;;;;;;;;;;;;;;;;;6216838;23;20250;-89
2024/03/22 21:14:52;;;;;;;;;;;;;;;;;;6216272;23;19904;-89
2024/03/22 21:17:17;;;;;;;;;;;;;;;;;;6217117;23;19908;-92
2024/03/22 21:19:43;;;;;;;;;;;;;;;;;;6215410;23;19919;-90
2024/03/22 21:22:09;;;;;;;;;;;;;;;;;;6216930;23;19950;-91
2024/03/22 21:24:35;;;;;;;;;;;;;;;;;;6215438;23;19915;-91
2024/03/22 21:27:03;;;;;;;;;;;;;;;;;;6217428;23;20274;-91
2024/03/22 21:29:29;;;;;;;;;;;;;;;;;;6217298;23;20242;-92
2024/03/22 21:31:54;;;;;;;;;;;;;;;;;;6215985;23;19915;-92
2024/03/22 21:34:20;;;;;;;;;;;;;;;;;;6215681;23;20307;-92
2024/03/22 21:36:47;;;;;;;;;;;;;;;;;;6215966;23;19974;-92
2024/03/22 21:39:13;;;;;;;;;;;;;;;;;;6190965;23;19908;-93
2024/03/22 21:41:39;;;;;;;;;;;;;;;;;;6217515;23;19908;-94
2024/03/22 21:44:05;;;;;;;;;;;;;;;;;;6219434;23;19962;-94
2024/03/22 21:46:31;;;;;;;;;;;;;;;;;;6218223;23;19908;-94
2024/03/22 21:48:57;;;;;;;;;;;;;;;;;;6217899;23;20326;-94
2024/03/22 21:51:26;;;;;;;;;;;;;;;;;;6219077;23;19984;-94
2024/03/22 21:53:52;;;;;;;;;;;;;;;;;;6217656;23;19908;-93
2024/03/22 21:56:17;;;;;;;;;;;;;;;;;;6218901;23;19908;-92
2024/03/22 21:58:43;;;;;;;;;;;;;;;;;;6217669;23;20369;-93
2024/03/22 22:01:09;;;;;;;;;;;;;;;;;;6217707;23;19912;-93
2024/03/22 22:03:35;;;;;;;;;;;;;;;;;;6218998;23;19907;-93
2024/03/22 22:06:01;;;;;;;;;;;;;;;;;;6219001;23;20230;-93
2024/03/22 22:08:27;;;;;;;;;;;;;;;;;;6217612;23;19911;-92
2024/03/22 22:10:53;;;;;;;;;;;;;;;;;;6191936;23;19930;-93
2024/03/22 22:13:19;;;;;;;;;;;;;;;;;;6217636;23;19912;-92
2024/03/22 22:15:45;;;;;;;;;;;;;;;;;;6218845;23;19911;-92
2024/03/22 22:18:11;;;;;;;;;;;;;;;;;;6217472;23;20342;-92
2024/03/22 22:20:37;;;;;;;;;;;;;;;;;;6217475;23;19908;-93
2024/03/22 22:23:03;;;;;;;;;;;;;;;;;;6218543;23;20327;-89
2024/03/22 22:25:28;;;;;;;;;;;;;;;;;;6218190;23;20270;-89
2024/03/22 22:27:54;;;;;;;;;;;;;;;;;;6216577;23;19912;-89
2024/03/22 22:30:20;;;;;;;;;;;;;;;;;;6216392;23;20262;-90
2024/03/22 22:32:46;;;;;;;;;;;;;;;;;;6217217;23;19916;-90
2024/03/22 22:35:12;;;;;;;;;;;;;;;;;;6217530;23;20231;-92
2024/03/22 22:37:37;;;;;;;;;;;;;;;;;;6217457;23;20291;-89
2024/03/22 22:40:04;;;;;;;;;;;;;;;;;;6218282;23;20331;-89
2024/03/22 22:42:29;;;;;;;;;;;;;;;;;;6216405;23;20308;-89
2024/03/22 22:44:55;;;;;;;;;;;;;;;;;;6217943;23;19915;-89
2024/03/22 22:47:21;;;;;;;;;;;;;;;;;;6218858;23;20319;-90
2024/03/22 22:49:47;;;;;;;;;;;;;;;;;;6216607;23;20358;-88
2024/03/22 22:52:13;;;;;;;;;;;;;;;;;;6217955;23;20360;-89
2024/03/22 22:54:39;;;;;;;;;;;;;;;;;;6216739;23;19912;-89
2024/03/22 22:57:05;;;;;;;;;;;;;;;;;;6218200;23;19954;-89
2024/03/22 22:59:30;;;;;;;;;;;;;;;;;;6216327;23;20025;-89
2024/03/22 23:01:56;;;;;;;;;;;;;;;;;;6216534;23;19907;-89
2024/03/22 23:04:22;;;;;;;;;;;;;;;;;;6217361;23;19954;-92
2024/03/22 23:06:48;;;;;;;;;;;;;;;;;;6216819;23;19908;-92
2024/03/22 23:09:13;;;;;;;;;;;;;;;;;;6216740;23;20304;-92
2024/03/22 23:11:39;;;;;;;;;;;;;;;;;;6217098;23;19912;-91
2024/03/22 23:14:05;;;;;;;;;;;;;;;;;;6216332;23;19958;-92
2024/03/22 23:16:31;;;;;;;;;;;;;;;;;;6217227;23;19912;-92
2024/03/22 23:18:57;;;;;;;;;;;;;;;;;;6218276;23;19935;-92
2024/03/22 23:21:22;;;;;;;;;;;;;;;;;;6216974;23;19954;-91
2024/03/22 23:23:48;;;;;;;;;;;;;;;;;;6191685;23;20315;-92
2024/03/22 23:26:14;;;;;;;;;;;;;;;;;;6216727;23;19916;-93
2024/03/22 23:28:40;;;;;;;;;;;;;;;;;;6191087;23;19908;-93
2024/03/22 23:31:05;;;;;;;;;;;;;;;;;;6218213;23;19904;-93
2024/03/22 23:33:31;;;;;;;;;;;;;;;;;;6216063;23;19962;-92
2024/03/22 23:35:57;;;;;;;;;;;;;;;;;;6218183;23;20282;-93
2024/03/22 23:38:23;;;;;;;;;;;;;;;;;;6217927;23;19907;-91
2024/03/22 23:40:49;;;;;;;;;;;;;;;;;;6218165;23;19962;-93
2024/03/22 23:43:16;;;;;;;;;;;;;;;;;;6218176;23;20385;-93
2024/03/22 23:45:42;;;;;;;;;;;;;;;;;;6218114;23;19908;-93
2024/03/22 23:48:07;;;;;;;;;;;;;;;;;;6218079;23;20274;-93
2024/03/22 23:50:33;;;;;;;;;;;;;;;;;;6217946;23;19904;-93
2024/03/22 23:52:59;;;;;;;;;;;;;;;;;;6216516;23;19908;-93
2024/03/22 23:55:24;;;;;;;;;;;;;;;;;;6216599;23;19907;-93
2024/03/22 23:57:50;;;;;;;;;;;;;;;;;;6190994;23;19911;-91
